Troodos, Cyprus
Current Conditions -  °F | °C
As of 7:50 AM on Wednesday 26 Nov 2014 (Local Time) from LCRA Reporting Station
Few Clouds Few Clouds  
Wind Chill: 52°   Ceiling: Unl
Heat Index: 52°   Visibility: 6mi
Dew Point: 46°   Wind: 8mph
Humidity: 82%   Direction: 290°WNW
Pressure: 29.74"   Gusts: NA
Location:  34.93°N, 32.87°E
Report Text: LCRA 260450Z 29007KT 9999 FEW040 11/08 Q1007 TEMPO 7000 SHRA
Loading
Personal Weather Stations






























Interactive Weather Map New forecast layout! Learn more

10-Day Weather Forecast

Advertisements
Track Severe Weather on mobile